Latest Weather Observations for Sydney Airport

IDN60901

Issued at 11:31 am EST Thursday 1 October 2020 (issued every 10 minutes, with the page automatically refreshed every 10 minutes)

About weather observations | Map of Sydney area stations | Latest observations for Sydney area | Other Formats
Station Details ID: 066037 Name: SYDNEY AIRPORT AMO Lat: -33.95 Lon: 151.17 Height: 6.0 m
Data from the previous 72 hours. | See also: Recent months at Sydney Airport
Date/Time
EST
Temp
°C
App
Temp
°C
Dew
Point
°C
Rel
Hum
%
Delta-T
°C
Wind Press
QNH
hPa
Press
MSL
hPa
Rain since
9am
mm
Dir  Spd
km/h
Gust
km/h
Spd
kts
Gust
kts
01/11:00am 21.5 18.7 11.5 53 5.6 SW 17 22 9 12 1014.8 1014.8 0.2
01/10:30am 21.4 17.6 11.1 52 5.7 WSW 22 30 12 16 1015.2 1015.2 0.2
01/10:00am 20.1 19.1 12.3 61 4.4 SW 9 13 5 7 1015.3 1015.3 0.0
01/09:30am 17.8 15.9 12.9 73 2.7 S 15 19 8 10 1015.2 1015.2 0.0
01/09:00am 19.2 18.5 12.0 63 4.0 WNW 7 13 4 7 1014.8 1014.8 2.4
01/08:30am 19.7 19.5 13.6 68 3.5 WNW 7 9 4 5 1014.7 1014.7 2.4
01/08:00am 18.4 18.0 14.1 76 2.5 NW 9 11 5 6 1014.8 1014.8 2.4
01/07:30am 16.4 15.9 13.7 84 1.5 NW 9 11 5 6 1014.6 1014.6 2.4
01/07:00am 15.8 15.3 13.8 88 1.1 N 9 13 5 7 1014.3 1014.3 2.4
01/06:30am 14.8 13.6 12.8 88 1.1 WNW 11 15 6 8 1013.3 1013.3 2.4
01/06:00am 14.5 11.6 12.4 87 1.1 SW 19 24 10 13 1014.3 1014.3 2.2
01/05:30am 15.5 14.1 12.3 81 1.7 NW 11 13 6 7 1013.1 1013.1 1.8
01/05:00am 15.6 13.5 12.4 81 1.8 NNW 15 17 8 9 1012.2 1012.2 1.8
01/04:30am 15.4 13.4 12.7 84 1.5 N 15 19 8 10 1011.8 1011.8 1.8
01/04:00am 15.3 14.0 12.4 83 1.6 NNW 11 13 6 7 1012.0 1012.0 1.4
01/03:30am 14.5 13.2 12.4 87 1.1 NE 11 13 6 7 1011.7 1011.7 1.4
01/03:00am 14.6 14.1 12.5 87 1.1 ENE 7 9 4 5 1011.9 1011.9 1.4
01/02:30am 14.9 15.5 11.9 82 1.6 CALM 0 2 0 1 1012.0 1012.0 1.4
01/02:00am 15.5 13.2 11.9 79 2.0 NNW 15 20 8 11 1011.9 1011.9 1.4
01/01:49am 15.7 12.6 11.7 77 2.2 NNW 19 24 10 13 1012.0 1012.0 0.4
01/01:44am 15.9 12.2 11.5 75 2.4 NNW 22 28 12 15 1011.9 1011.9 0.2
01/01:30am 16.2 13.5 11.6 74 2.5 NNW 17 24 9 13 1011.9 1011.9 0.0
01/01:00am 16.1 12.7 11.1 72 2.7 N 20 26 11 14 1011.9 1011.9 0.0
01/12:30am 16.6 13.2 10.5 67 3.2 N 19 24 10 13 1012.1 1012.1 0.0
01/12:00am 16.5 12.5 10.6 68 3.1 N 22 30 12 16 1012.4 1012.4 0.0
 
Date/Time
EST
Temp
°C
App
Temp
°C
Dew
Point
°C
Rel
Hum
%
Delta-T
°C
Wind Press
QNH
hPa
Press
MSL
hPa
Rain since
9am
mm
Dir  Spd
km/h
Gust
km/h
Spd
kts
Gust
kts
30/11:30pm 16.6 12.7 10.7 68 3.1 N 22 28 12 15 1012.9 1012.9 0.0
30/11:00pm 17.1 13.9 11.2 68 3.2 N 19 26 10 14 1013.3 1013.3 0.0
30/10:30pm 17.1 13.3 11.2 68 3.2 N 22 30 12 16 1013.6 1013.6 0.0
30/10:00pm 17.3 12.8 10.2 63 3.8 N 24 32 13 17 1013.5 1013.5 0.0
30/09:30pm 17.4 13.9 10.1 62 3.9 N 19 26 10 14 1013.8 1013.8 0.0
30/09:00pm 18.0 13.9 10.1 60 4.2 N 22 30 12 16 1014.1 1014.1 0.0
30/08:30pm 18.2 14.0 9.8 58 4.4 N 22 30 12 16 1014.0 1014.0 0.0
30/08:00pm 18.9 15.7 9.9 56 4.8 N 17 19 9 10 1014.2 1014.2 0.0
30/07:30pm 19.1 15.9 9.9 55 4.9 N 17 22 9 12 1014.2 1014.2 0.0
30/07:00pm 19.5 15.9 9.7 53 5.2 N 19 26 10 14 1014.1 1014.1 0.0
30/06:30pm 19.7 16.5 10.1 54 5.2 N 17 22 9 12 1013.8 1013.8 0.0
30/06:00pm 19.8 15.8 10.5 55 5.0 NNW 22 30 12 16 1013.9 1013.9 0.0
30/05:30pm 20.6 17.9 10.4 52 5.5 N 15 30 8 16 1013.7 1013.7 0.0
30/05:00pm 19.2 16.8 12.7 66 3.6 NE 17 19 9 10 1013.4 1013.4 0.0
30/04:30pm 19.0 16.6 12.5 66 3.6 NE 17 22 9 12 1013.5 1013.5 0.0
30/04:00pm 19.0 15.8 12.0 64 3.9 NE 20 26 11 14 1013.6 1013.6 0.0
30/03:30pm 18.7 14.8 12.0 65 3.7 NNE 24 30 13 16 1013.8 1013.8 0.0
30/03:00pm 19.3 14.6 10.8 58 4.6 NNE 26 32 14 17 1013.8 1013.8 0.0
30/02:30pm 20.0 15.4 11.0 56 4.9 NNE 26 32 14 17 1013.6 1013.6 0.0
30/02:00pm 20.3 15.2 10.7 54 5.2 NNE 28 33 15 18 1014.1 1014.1 0.0
30/01:30pm 20.6 15.7 10.1 51 5.7 NNE 26 30 14 16 1014.6 1014.6 0.0
30/01:00pm 20.4 16.4 10.5 53 5.4 NNE 22 26 12 14 1015.3 1015.3 0.0
30/12:30pm 19.9 16.2 10.0 53 5.3 NNE 20 30 11 16 1015.8 1015.8 0.0
30/12:00pm 21.0 17.1 8.6 45 6.5 N 19 26 10 14 1016.5 1016.5 0.0
30/11:30am 19.9 17.0 8.3 47 6.0 N 13 19 7 10 1017.1 1017.1 0.0
30/11:00am 20.0 16.9 8.7 48 5.9 NNW 15 22 8 12 1018.0 1018.0 0.0
30/10:30am 20.2 16.3 8.5 47 6.1 NNW 19 26 10 14 1018.6 1018.6 0.0
30/10:00am 20.2 17.1 8.8 48 6.0 N 15 22 8 12 1019.0 1019.0 0.0
30/09:30am 19.4 15.4 8.4 49 5.7 N 19 24 10 13 1019.6 1019.6 0.0
30/09:00am 18.7 14.2 8.7 52 5.2 N 22 30 12 16 1019.8 1019.8 0.0
30/08:30am 18.2 14.8 9.3 56 4.7 N 17 20 9 11 1020.0 1020.0 0.0
30/08:00am 16.9 14.4 9.8 63 3.7 NW 13 17 7 9 1020.2 1020.2 0.0
30/07:30am 15.3 13.4 9.0 66 3.2 NNW 9 11 5 6 1020.1 1020.1 0.0
30/07:00am 14.6 13.1 9.2 70 2.8 NW 7 11 4 6 1020.1 1020.1 0.0
30/06:30am 14.7 13.0 9.7 72 2.6 WNW 9 11 5 6 1019.9 1019.9 0.0
30/06:00am 13.4 11.8 8.9 74 2.3 NW 7 7 4 4 1019.8 1019.8 0.0
30/05:30am 13.4 11.8 8.9 74 2.3 NNW 7 9 4 5 1019.6 1019.6 0.0
30/05:00am 12.5 10.8 8.4 76 2.0 NNW 7 9 4 5 1019.4 1019.4 0.0
30/04:30am 12.4 12.0 8.3 76 2.0 CALM 0 0 0 0 1019.3 1019.3 0.0
30/04:00am 12.2 11.9 8.5 78 1.8 CALM 0 0 0 0 1019.5 1019.5 0.0
30/03:30am 11.9 11.4 7.8 76 2.0 CALM 0 0 0 0 1019.8 1019.8 0.0
30/03:00am 12.2 11.3 7.7 74 2.2 NNW 2 6 1 3 1020.3 1020.3 0.0
30/02:30am 12.7 10.9 8.0 73 2.3 NNW 7 9 4 5 1020.7 1020.7 0.0
30/02:00am 13.3 11.6 8.2 71 2.5 NW 7 9 4 5 1020.9 1020.9 0.0
30/01:30am 13.8 11.7 8.4 70 2.7 WNW 9 9 5 5 1021.3 1021.3 0.0
30/01:00am 13.8 12.1 8.4 70 2.7 NW 7 9 4 5 1021.6 1021.6 0.0
30/12:30am 14.3 12.6 8.5 68 2.9 WNW 7 11 4 6 1022.0 1022.0 0.0
30/12:00am 14.4 11.6 8.4 67 3.0 WNW 13 15 7 8 1022.5 1022.5 0.0
 
Date/Time
EST
Temp
°C
App
Temp
°C
Dew
Point
°C
Rel
Hum
%
Delta-T
°C
Wind Press
QNH
hPa
Press
MSL
hPa
Rain since
9am
mm
Dir  Spd
km/h
Gust
km/h
Spd
kts
Gust
kts
29/11:30pm 14.9 12.1 8.6 66 3.2 NW 13 17 7 9 1022.8 1022.8 0.0
29/11:00pm 15.0 12.2 8.7 66 3.2 NW 13 22 7 12 1023.0 1023.0 0.0
29/10:30pm 15.3 12.2 8.8 65 3.3 NW 15 19 8 10 1023.2 1023.2 0.0
29/10:00pm 16.3 13.2 8.8 61 3.8 N 15 20 8 11 1023.4 1023.4 0.0
29/09:30pm 16.7 14.0 8.9 60 4.0 N 13 19 7 10 1023.6 1023.6 0.0
29/09:00pm 16.7 14.0 8.9 60 4.0 NNE 13 17 7 9 1023.8 1023.8 0.0
29/08:30pm 16.6 13.4 8.6 59 4.1 NNE 15 19 8 10 1023.8 1023.8 0.0
29/08:00pm 16.0 12.8 8.5 61 3.8 NE 15 19 8 10 1023.8 1023.8 0.0
29/07:30pm 15.9 12.7 8.4 61 3.8 NNE 15 19 8 10 1023.9 1023.9 0.0
29/07:00pm 16.3 12.7 8.5 60 4.0 NE 17 22 9 12 1023.6 1023.6 0.0
29/06:30pm 15.9 11.7 8.2 60 3.9 NE 20 26 11 14 1023.3 1023.3 0.0
29/06:00pm 16.0 11.7 7.7 58 4.1 NE 20 28 11 15 1023.1 1023.1 0.0
29/05:30pm 16.4 11.6 7.3 55 4.5 NE 22 28 12 15 1023.1 1023.1 0.0
29/05:00pm 16.5 11.2 6.6 52 4.8 ENE 24 30 13 16 1023.0 1023.0 0.0
29/04:30pm 17.3 12.4 7.1 51 5.1 ENE 22 30 12 16 1023.0 1023.0 0.0
29/04:00pm 17.5 12.2 6.7 49 5.3 ENE 24 32 13 17 1023.1 1023.1 0.0
29/03:30pm 17.8 12.9 6.7 48 5.5 ENE 22 30 12 16 1023.2 1023.2 0.0
29/03:00pm 18.1 13.5 6.6 47 5.7 NE 20 28 11 15 1023.0 1023.0 0.0
29/02:30pm 18.1 13.5 6.3 46 5.8 ENE 20 32 11 17 1023.6 1023.6 0.0
29/02:00pm 18.1 12.7 6.3 46 5.8 E 24 32 13 17 1024.1 1024.1 0.0
29/01:30pm 18.5 13.9 6.7 46 5.9 ENE 20 28 11 15 1024.5 1024.5 0.0
29/01:00pm 19.3 15.5 7.7 47 5.9 E 17 28 9 15 1024.9 1024.9 0.0
29/12:30pm 18.9 15.1 7.4 47 5.8 E 17 24 9 13 1025.2 1025.2 0.0
29/12:00pm 18.8 15.3 7.3 47 5.8 ESE 15 22 8 12 1025.6 1025.6 0.0
29/11:30am 17.1 13.5 6.9 51 5.1 ESE 15 22 8 12 1026.1 1026.1 0.0
29/11:00am 18.2 14.7 7.0 48 5.6 SE 15 19 8 10 1026.8 1026.8 0.0
29/10:30am 17.6 15.1 8.2 54 4.8 ESE 11 15 6 8 1027.5 1027.5 0.0
29/10:00am 16.8 14.4 7.2 53 4.7 E 9 13 5 7 1027.8 1027.8 0.0
29/09:30am 16.1 14.5 7.8 58 4.2 S 6 9 3 5 1027.9 1027.9 0.0
29/09:00am 15.8 13.8 8.5 62 3.7 SSE 9 11 5 6 1027.8 1027.8 0.2
29/08:30am 16.0 13.9 8.2 60 3.9 SSE 9 13 5 7 1028.0 1028.0 0.2
29/08:00am 15.4 13.2 7.7 60 3.8 SSE 9 13 5 7 1027.9 1027.9 0.2
29/07:30am 15.3 13.3 8.5 64 3.4 SE 9 15 5 8 1027.6 1027.6 0.2
29/07:00am 15.0 12.1 8.0 63 3.5 SE 13 15 7 8 1027.0 1027.0 0.2
29/06:30am 14.7 12.2 8.2 65 3.3 SE 11 13 6 7 1026.9 1026.9 0.2
29/06:00am 14.2 11.8 8.6 69 2.8 SE 11 13 6 7 1026.5 1026.5 0.2
29/05:30am 13.4 10.5 8.0 70 2.7 SSE 13 17 7 9 1026.0 1026.0 0.2
29/05:00am 12.9 9.8 7.1 68 2.8 SE 13 15 7 8 1025.8 1025.8 0.2
29/04:30am 13.5 10.5 7.5 67 2.9 SE 13 15 7 8 1025.6 1025.6 0.2
29/04:00am 14.3 11.8 8.3 67 3.0 SE 11 17 6 9 1025.7 1025.7 0.2
29/03:30am 14.4 11.6 8.6 68 2.9 SSE 13 17 7 9 1026.0 1026.0 0.2
29/03:00am 14.5 11.4 8.7 68 2.9 SSE 15 19 8 10 1026.2 1026.2 0.2
29/02:30am 14.5 11.7 8.7 68 2.9 SE 13 17 7 9 1026.2 1026.2 0.2
29/02:00am 14.6 12.3 9.0 69 2.8 SE 11 15 6 8 1026.5 1026.5 0.2
29/01:30am 14.4 11.7 8.8 69 2.8 SE 13 15 7 8 1026.7 1026.7 0.2
29/01:00am 14.5 11.5 9.1 70 2.7 SE 15 19 8 10 1026.8 1026.8 0.2
29/12:30am 14.4 11.6 8.6 68 2.9 SE 13 17 7 9 1027.0 1027.0 0.2
29/12:00am 14.7 11.5 8.6 67 3.1 SE 15 19 8 10 1027.2 1027.2 0.2
 
Date/Time
EST
Temp
°C
App
Temp
°C
Dew
Point
°C
Rel
Hum
%
Delta-T
°C
Wind Press
QNH
hPa
Press
MSL
hPa
Rain since
9am
mm
Dir  Spd
km/h
Gust
km/h
Spd
kts
Gust
kts
28/11:30pm 14.5 11.4 8.9 69 2.8 SE 15 19 8 10 1027.2 1027.2 0.2
28/11:00pm 14.2 10.7 8.8 70 2.7 ESE 17 19 9 10 1027.2 1027.2 0.2
28/10:30pm 13.8 10.5 8.2 69 2.8 ESE 15 17 8 9 1027.1 1027.1 0.2
28/10:00pm 13.8 10.4 7.8 67 2.9 ESE 15 19 8 10 1027.0 1027.0 0.2
28/09:30pm 14.2 10.7 7.3 63 3.4 ESE 15 17 8 9 1027.0 1027.0 0.2
28/09:00pm 14.1 11.0 7.2 63 3.3 ESE 13 17 7 9 1026.9 1026.9 0.2
28/08:30pm 14.0 10.7 6.4 60 3.6 E 13 17 7 9 1026.8 1026.8 0.2
28/08:00pm 14.4 10.7 6.5 59 3.8 E 15 17 8 9 1026.6 1026.6 0.2
28/07:30pm 14.6 10.9 6.2 57 4.0 E 15 17 8 9 1026.2 1026.2 0.2
28/07:00pm 15.1 11.4 6.4 56 4.2 E 15 19 8 10 1025.8 1025.8 0.2
28/06:30pm 15.4 11.3 6.4 55 4.4 ENE 17 22 9 12 1025.4 1025.4 0.2
28/06:00pm 15.8 11.7 6.0 52 4.7 ENE 17 24 9 13 1025.0 1025.0 0.2
28/05:30pm 16.5 11.8 6.1 50 5.1 ENE 20 28 11 15 1024.7 1024.7 0.2
28/05:00pm 17.0 11.1 5.9 48 5.4 ENE 26 30 14 16 1024.4 1024.4 0.2
28/04:30pm 17.9 12.1 6.1 46 5.8 NE 26 30 14 16 1024.1 1024.1 0.2
28/04:00pm 17.7 11.3 5.0 43 6.1 NE 28 32 15 17 1024.2 1024.2 0.2
28/03:30pm 18.4 12.5 5.6 43 6.2 NE 26 32 14 17 1024.1 1024.1 0.2
28/03:00pm 18.0 12.7 5.2 43 6.1 ENE 22 30 12 16 1024.2 1024.2 0.2
28/02:30pm 18.4 13.2 5.6 43 6.2 ENE 22 28 12 15 1024.5 1024.5 0.2
28/02:00pm 18.3 13.1 5.5 43 6.2 ENE 22 30 12 16 1024.7 1024.7 0.2
28/01:30pm 19.0 13.6 6.5 44 6.2 E 24 30 13 16 1024.9 1024.9 0.0
28/01:00pm 18.5 12.5 5.4 42 6.3 E 26 33 14 18 1025.2 1025.2 0.0
28/12:30pm 18.2 13.5 5.1 42 6.3 ENE 19 28 10 15 1025.4 1025.4 0.0
28/12:00pm 17.2 12.6 3.5 40 6.3 SE 17 22 9 12 1025.8 1025.8 0.0

Latest Capital City Observations: Canberra | Sydney | Melbourne | Brisbane | Adelaide | Perth | Hobart | Darwin

Other formats

Comma delimited format used in spreadsheet applications
http://www.bom.gov.au/fwo/IDN60901/IDN60901.94767.axf

JavaScript Object Notation format (JSON) in row-major order
http://www.bom.gov.au/fwo/IDN60901/IDN60901.94767.json

Data quality

Most of these data are generated automatically and are frequently updated. Quality checks on data are not normally performed. It is possible for incorrect values to appear. Refer to information at About Latest Weather Observations and please check the disclaimer before using these data.